sensor_id;sensor_type;location;lat;lon;timestamp;P1;durP1;ratioP1;P2;durP2;ratioP2
50102;SDS011;35993;52.604;10.078;2023-02-28T00:00:05;10.70;;;5.27;;
50102;SDS011;35993;52.604;10.078;2023-02-28T00:02:41;9.30;;;5.23;;
50102;SDS011;35993;52.604;10.078;2023-02-28T00:05:09;9.73;;;4.87;;
50102;SDS011;35993;52.604;10.078;2023-02-28T00:07:36;10.90;;;4.83;;
50102;SDS011;35993;52.604;10.078;2023-02-28T00:10:02;10.60;;;5.30;;
50102;SDS011;35993;52.604;10.078;2023-02-28T00:12:29;9.63;;;4.87;;
50102;SDS011;35993;52.604;10.078;2023-02-28T00:14:55;8.07;;;4.97;;
50102;SDS011;35993;52.604;10.078;2023-02-28T00:17:20;8.63;;;4.87;;
50102;SDS011;35993;52.604;10.078;2023-02-28T00:19:47;12.07;;;5.27;;
50102;SDS011;35993;52.604;10.078;2023-02-28T00:22:14;11.03;;;5.33;;
50102;SDS011;35993;52.604;10.078;2023-02-28T00:24:41;9.00;;;5.00;;
50102;SDS011;35993;52.604;10.078;2023-02-28T00:27:06;8.07;;;4.83;;
50102;SDS011;35993;52.604;10.078;2023-02-28T00:29:32;8.27;;;4.60;;
50102;SDS011;35993;52.604;10.078;2023-02-28T00:31:57;8.70;;;4.83;;
50102;SDS011;35993;52.604;10.078;2023-02-28T00:34:23;10.07;;;4.70;;
50102;SDS011;35993;52.604;10.078;2023-02-28T00:36:49;8.53;;;3.87;;
50102;SDS011;35993;52.604;10.078;2023-02-28T00:39:14;9.03;;;3.83;;
50102;SDS011;35993;52.604;10.078;2023-02-28T00:41:40;7.77;;;4.20;;
50102;SDS011;35993;52.604;10.078;2023-02-28T00:44:06;9.03;;;4.50;;
50102;SDS011;35993;52.604;10.078;2023-02-28T00:46:31;6.93;;;3.80;;
50102;SDS011;35993;52.604;10.078;2023-02-28T00:48:57;8.63;;;3.80;;
50102;SDS011;35993;52.604;10.078;2023-02-28T00:51:23;8.27;;;4.20;;
50102;SDS011;35993;52.604;10.078;2023-02-28T00:53:48;6.10;;;3.80;;
50102;SDS011;35993;52.604;10.078;2023-02-28T00:56:15;7.47;;;4.27;;
50102;SDS011;35993;52.604;10.078;2023-02-28T00:58:41;8.63;;;3.97;;
50102;SDS011;35993;52.604;10.078;2023-02-28T01:01:06;8.90;;;4.50;;
50102;SDS011;35993;52.604;10.078;2023-02-28T01:03:32;6.40;;;3.70;;
50102;SDS011;35993;52.604;10.078;2023-02-28T01:05:58;6.10;;;3.53;;
50102;SDS011;35993;52.604;10.078;2023-02-28T01:08:24;7.23;;;3.60;;
50102;SDS011;35993;52.604;10.078;2023-02-28T01:10:51;7.60;;;4.07;;
50102;SDS011;35993;52.604;10.078;2023-02-28T01:13:17;8.50;;;4.50;;
50102;SDS011;35993;52.604;10.078;2023-02-28T01:15:45;7.23;;;3.93;;
50102;SDS011;35993;52.604;10.078;2023-02-28T01:18:15;8.80;;;4.05;;
50102;SDS011;35993;52.604;10.078;2023-02-28T01:20:41;7.83;;;3.70;;
50102;SDS011;35993;52.604;10.078;2023-02-28T01:23:07;7.13;;;4.17;;
50102;SDS011;35993;52.604;10.078;2023-02-28T01:25:36;7.53;;;4.03;;
50102;SDS011;35993;52.604;10.078;2023-02-28T01:28:04;7.30;;;4.03;;
50102;SDS011;35993;52.604;10.078;2023-02-28T01:30:31;8.33;;;3.77;;
50102;SDS011;35993;52.604;10.078;2023-02-28T01:32:57;7.00;;;3.70;;
50102;SDS011;35993;52.604;10.078;2023-02-28T01:35:24;9.97;;;4.30;;
50102;SDS011;35993;52.604;10.078;2023-02-28T01:37:50;6.57;;;3.77;;
50102;SDS011;35993;52.604;10.078;2023-02-28T01:40:15;7.93;;;3.50;;
50102;SDS011;35993;52.604;10.078;2023-02-28T01:42:41;8.07;;;3.53;;
50102;SDS011;35993;52.604;10.078;2023-02-28T01:45:16;6.13;;;3.40;;
50102;SDS011;35993;52.604;10.078;2023-02-28T01:47:47;7.67;;;3.80;;
50102;SDS011;35993;52.604;10.078;2023-02-28T01:50:18;6.43;;;4.13;;
50102;SDS011;35993;52.604;10.078;2023-02-28T01:52:45;7.47;;;3.67;;
50102;SDS011;35993;52.604;10.078;2023-02-28T01:55:13;10.03;;;4.07;;
50102;SDS011;35993;52.604;10.078;2023-02-28T01:57:52;7.30;;;3.90;;
50102;SDS011;35993;52.604;10.078;2023-02-28T02:00:23;5.97;;;3.47;;
50102;SDS011;35993;52.604;10.078;2023-02-28T02:02:55;7.10;;;3.77;;
50102;SDS011;35993;52.604;10.078;2023-02-28T02:05:28;7.35;;;3.25;;
50102;SDS011;35993;52.604;10.078;2023-02-28T02:07:57;6.07;;;3.47;;
50102;SDS011;35993;52.604;10.078;2023-02-28T02:16:28;6.40;;;3.60;;
50102;SDS011;35993;52.604;10.078;2023-02-28T02:29:32;7.03;;;3.30;;
50102;SDS011;35993;52.604;10.078;2023-02-28T02:40:22;7.30;;;4.27;;
50102;SDS011;35993;52.604;10.078;2023-02-28T02:42:56;8.40;;;4.07;;
50102;SDS011;35993;52.604;10.078;2023-02-28T02:45:52;6.77;;;3.47;;
50102;SDS011;35993;52.604;10.078;2023-02-28T02:48:24;9.80;;;4.23;;
50102;SDS011;35993;52.604;10.078;2023-02-28T02:50:54;7.87;;;3.70;;
50102;SDS011;35993;52.604;10.078;2023-02-28T02:53:24;7.10;;;3.87;;
50102;SDS011;35993;52.604;10.078;2023-02-28T02:55:56;6.97;;;3.60;;
50102;SDS011;35993;52.604;10.078;2023-02-28T02:58:25;6.90;;;3.70;;
50102;SDS011;35993;52.604;10.078;2023-02-28T03:00:56;8.60;;;4.00;;
50102;SDS011;35993;52.604;10.078;2023-02-28T03:03:25;7.83;;;4.10;;
50102;SDS011;35993;52.604;10.078;2023-02-28T03:05:56;6.87;;;3.60;;
50102;SDS011;35993;52.604;10.078;2023-02-28T03:08:24;6.40;;;3.53;;
50102;SDS011;35993;52.604;10.078;2023-02-28T03:10:51;12.00;;;4.40;;
50102;SDS011;35993;52.604;10.078;2023-02-28T03:13:42;6.30;;;3.40;;
50102;SDS011;35993;52.604;10.078;2023-02-28T03:19:10;6.70;;;3.53;;
50102;SDS011;35993;52.604;10.078;2023-02-28T03:30:59;10.33;;;5.20;;
50102;SDS011;35993;52.604;10.078;2023-02-28T03:33:37;15.13;;;6.23;;
50102;SDS011;35993;52.604;10.078;2023-02-28T03:36:09;13.40;;;5.70;;
50102;SDS011;35993;52.604;10.078;2023-02-28T03:38:41;12.15;;;5.18;;
50102;SDS011;35993;52.604;10.078;2023-02-28T03:41:21;8.63;;;4.70;;
50102;SDS011;35993;52.604;10.078;2023-02-28T03:43:56;11.17;;;4.70;;
50102;SDS011;35993;52.604;10.078;2023-02-28T03:46:27;8.00;;;4.53;;
50102;SDS011;35993;52.604;10.078;2023-02-28T03:51:38;6.00;;;3.30;;
50102;SDS011;35993;52.604;10.078;2023-02-28T03:54:09;7.23;;;3.30;;
50102;SDS011;35993;52.604;10.078;2023-02-28T03:59:34;4.67;;;2.93;;
50102;SDS011;35993;52.604;10.078;2023-02-28T04:02:02;7.93;;;3.20;;
50102;SDS011;35993;52.604;10.078;2023-02-28T04:04:28;9.93;;;3.33;;
50102;SDS011;35993;52.604;10.078;2023-02-28T04:07:00;6.80;;;3.17;;
50102;SDS011;35993;52.604;10.078;2023-02-28T04:09:28;8.70;;;3.20;;
50102;SDS011;35993;52.604;10.078;2023-02-28T04:11:54;9.33;;;3.33;;
50102;SDS011;35993;52.604;10.078;2023-02-28T04:14:21;5.77;;;2.80;;
50102;SDS011;35993;52.604;10.078;2023-02-28T04:16:47;7.67;;;3.70;;
50102;SDS011;35993;52.604;10.078;2023-02-28T04:19:13;6.00;;;2.90;;
50102;SDS011;35993;52.604;10.078;2023-02-28T04:24:07;6.53;;;3.30;;
50102;SDS011;35993;52.604;10.078;2023-02-28T04:26:42;6.03;;;3.00;;
50102;SDS011;35993;52.604;10.078;2023-02-28T04:29:09;7.60;;;2.90;;
50102;SDS011;35993;52.604;10.078;2023-02-28T04:31:36;5.93;;;3.57;;
50102;SDS011;35993;52.604;10.078;2023-02-28T04:34:02;6.53;;;3.67;;
50102;SDS011;35993;52.604;10.078;2023-02-28T04:36:28;5.33;;;2.70;;
50102;SDS011;35993;52.604;10.078;2023-02-28T04:38:54;5.37;;;2.60;;
50102;SDS011;35993;52.604;10.078;2023-02-28T04:41:21;5.70;;;3.30;;
50102;SDS011;35993;52.604;10.078;2023-02-28T04:43:48;7.77;;;3.47;;
50102;SDS011;35993;52.604;10.078;2023-02-28T04:46:14;6.90;;;2.90;;
50102;SDS011;35993;52.604;10.078;2023-02-28T04:48:40;8.80;;;3.70;;
50102;SDS011;35993;52.604;10.078;2023-02-28T04:51:07;5.60;;;2.90;;
50102;SDS011;35993;52.604;10.078;2023-02-28T04:53:35;5.77;;;2.97;;
50102;SDS011;35993;52.604;10.078;2023-02-28T04:56:02;7.87;;;3.23;;
50102;SDS011;35993;52.604;10.078;2023-02-28T04:58:29;7.37;;;3.00;;
50102;SDS011;35993;52.604;10.078;2023-02-28T05:01:01;6.00;;;2.77;;
50102;SDS011;35993;52.604;10.078;2023-02-28T05:03:38;5.90;;;3.00;;
50102;SDS011;35993;52.604;10.078;2023-02-28T05:06:06;6.97;;;3.33;;
50102;SDS011;35993;52.604;10.078;2023-02-28T05:08:32;8.40;;;3.03;;
50102;SDS011;35993;52.604;10.078;2023-02-28T05:10:58;7.50;;;3.30;;
50102;SDS011;35993;52.604;10.078;2023-02-28T05:13:26;6.27;;;3.00;;
50102;SDS011;35993;52.604;10.078;2023-02-28T05:15:52;5.47;;;2.83;;
50102;SDS011;35993;52.604;10.078;2023-02-28T05:18:17;6.80;;;3.43;;
50102;SDS011;35993;52.604;10.078;2023-02-28T05:20:43;7.27;;;3.37;;
50102;SDS011;35993;52.604;10.078;2023-02-28T05:23:10;7.93;;;3.50;;
50102;SDS011;35993;52.604;10.078;2023-02-28T05:25:37;6.47;;;3.27;;
50102;SDS011;35993;52.604;10.078;2023-02-28T05:28:04;7.30;;;3.60;;
50102;SDS011;35993;52.604;10.078;2023-02-28T05:30:29;8.50;;;3.43;;
50102;SDS011;35993;52.604;10.078;2023-02-28T05:32:56;7.33;;;3.47;;
50102;SDS011;35993;52.604;10.078;2023-02-28T05:35:22;7.17;;;3.07;;
50102;SDS011;35993;52.604;10.078;2023-02-28T05:37:48;5.33;;;3.03;;
50102;SDS011;35993;52.604;10.078;2023-02-28T05:40:14;6.43;;;3.37;;
50102;SDS011;35993;52.604;10.078;2023-02-28T05:42:40;6.77;;;3.43;;
50102;SDS011;35993;52.604;10.078;2023-02-28T05:45:07;7.10;;;3.27;;
50102;SDS011;35993;52.604;10.078;2023-02-28T05:47:33;7.00;;;2.97;;
50102;SDS011;35993;52.604;10.078;2023-02-28T05:49:59;6.03;;;2.90;;
50102;SDS011;35993;52.604;10.078;2023-02-28T05:52:26;6.27;;;3.30;;
50102;SDS011;35993;52.604;10.078;2023-02-28T05:54:52;5.00;;;3.03;;
50102;SDS011;35993;52.604;10.078;2023-02-28T05:57:18;6.87;;;3.20;;
50102;SDS011;35993;52.604;10.078;2023-02-28T05:59:43;7.00;;;3.50;;
50102;SDS011;35993;52.604;10.078;2023-02-28T06:02:13;5.73;;;3.10;;
50102;SDS011;35993;52.604;10.078;2023-02-28T06:04:41;5.95;;;3.20;;
50102;SDS011;35993;52.604;10.078;2023-02-28T06:07:07;6.13;;;3.57;;
50102;SDS011;35993;52.604;10.078;2023-02-28T06:09:33;6.63;;;2.97;;
50102;SDS011;35993;52.604;10.078;2023-02-28T06:12:00;7.00;;;2.97;;
50102;SDS011;35993;52.604;10.078;2023-02-28T06:14:28;5.57;;;2.83;;
50102;SDS011;35993;52.604;10.078;2023-02-28T06:16:56;5.33;;;2.70;;
50102;SDS011;35993;52.604;10.078;2023-02-28T06:19:22;5.73;;;2.80;;
50102;SDS011;35993;52.604;10.078;2023-02-28T06:21:51;4.87;;;2.60;;
50102;SDS011;35993;52.604;10.078;2023-02-28T06:24:18;4.80;;;2.53;;
50102;SDS011;35993;52.604;10.078;2023-02-28T06:26:44;6.50;;;2.80;;
50102;SDS011;35993;52.604;10.078;2023-02-28T06:29:10;5.00;;;2.40;;
50102;SDS011;35993;52.604;10.078;2023-02-28T06:31:36;5.63;;;2.70;;
50102;SDS011;35993;52.604;10.078;2023-02-28T06:34:03;5.20;;;2.83;;
50102;SDS011;35993;52.604;10.078;2023-02-28T06:36:29;6.60;;;2.90;;
50102;SDS011;35993;52.604;10.078;2023-02-28T06:38:55;7.17;;;2.80;;
50102;SDS011;35993;52.604;10.078;2023-02-28T06:41:22;5.43;;;2.80;;
50102;SDS011;35993;52.604;10.078;2023-02-28T06:43:51;5.03;;;2.63;;
50102;SDS011;35993;52.604;10.078;2023-02-28T06:46:18;4.67;;;2.63;;
50102;SDS011;35993;52.604;10.078;2023-02-28T06:48:44;6.57;;;3.00;;
50102;SDS011;35993;52.604;10.078;2023-02-28T06:51:17;6.23;;;2.90;;
50102;SDS011;35993;52.604;10.078;2023-02-28T06:53:45;6.83;;;2.80;;
50102;SDS011;35993;52.604;10.078;2023-02-28T06:56:12;6.90;;;3.73;;
50102;SDS011;35993;52.604;10.078;2023-02-28T06:58:38;9.20;;;3.30;;
50102;SDS011;35993;52.604;10.078;2023-02-28T07:01:05;4.60;;;2.97;;
50102;SDS011;35993;52.604;10.078;2023-02-28T07:03:31;6.67;;;3.23;;
50102;SDS011;35993;52.604;10.078;2023-02-28T07:05:58;11.67;;;3.27;;
50102;SDS011;35993;52.604;10.078;2023-02-28T07:08:24;10.67;;;3.80;;
50102;SDS011;35993;52.604;10.078;2023-02-28T07:10:52;9.43;;;2.93;;
50102;SDS011;35993;52.604;10.078;2023-02-28T07:13:19;6.83;;;2.97;;
50102;SDS011;35993;52.604;10.078;2023-02-28T07:15:52;5.33;;;2.53;;
50102;SDS011;35993;52.604;10.078;2023-02-28T07:18:18;5.43;;;2.53;;
50102;SDS011;35993;52.604;10.078;2023-02-28T07:20:44;5.70;;;3.23;;
50102;SDS011;35993;52.604;10.078;2023-02-28T07:23:10;5.50;;;2.67;;
50102;SDS011;35993;52.604;10.078;2023-02-28T07:25:35;7.20;;;2.87;;
50102;SDS011;35993;52.604;10.078;2023-02-28T07:28:01;9.00;;;3.60;;
50102;SDS011;35993;52.604;10.078;2023-02-28T07:30:26;5.70;;;2.77;;
50102;SDS011;35993;52.604;10.078;2023-02-28T07:32:52;10.93;;;3.17;;
50102;SDS011;35993;52.604;10.078;2023-02-28T07:35:19;7.03;;;2.90;;
50102;SDS011;35993;52.604;10.078;2023-02-28T07:37:45;12.13;;;3.30;;
50102;SDS011;35993;52.604;10.078;2023-02-28T07:40:12;8.17;;;3.30;;
50102;SDS011;35993;52.604;10.078;2023-02-28T07:42:38;5.60;;;3.00;;
50102;SDS011;35993;52.604;10.078;2023-02-28T07:45:05;6.57;;;3.30;;
50102;SDS011;35993;52.604;10.078;2023-02-28T07:47:31;6.87;;;3.73;;
50102;SDS011;35993;52.604;10.078;2023-02-28T07:49:57;7.13;;;3.90;;
50102;SDS011;35993;52.604;10.078;2023-02-28T07:52:23;5.87;;;3.77;;
50102;SDS011;35993;52.604;10.078;2023-02-28T07:54:49;7.80;;;4.20;;
50102;SDS011;35993;52.604;10.078;2023-02-28T07:57:15;8.13;;;4.13;;
50102;SDS011;35993;52.604;10.078;2023-02-28T07:59:41;8.90;;;3.93;;
50102;SDS011;35993;52.604;10.078;2023-02-28T08:02:10;6.43;;;3.37;;
50102;SDS011;35993;52.604;10.078;2023-02-28T08:04:38;5.85;;;2.65;;
50102;SDS011;35993;52.604;10.078;2023-02-28T08:07:04;7.60;;;3.00;;
50102;SDS011;35993;52.604;10.078;2023-02-28T08:09:30;4.97;;;2.37;;
50102;SDS011;35993;52.604;10.078;2023-02-28T08:11:55;6.87;;;2.50;;
50102;SDS011;35993;52.604;10.078;2023-02-28T08:14:21;5.93;;;2.93;;
50102;SDS011;35993;52.604;10.078;2023-02-28T08:16:49;5.10;;;2.73;;
50102;SDS011;35993;52.604;10.078;2023-02-28T08:19:15;6.30;;;3.13;;
50102;SDS011;35993;52.604;10.078;2023-02-28T08:21:40;4.57;;;2.60;;
50102;SDS011;35993;52.604;10.078;2023-02-28T08:24:06;4.20;;;2.40;;
50102;SDS011;35993;52.604;10.078;2023-02-28T08:26:32;6.27;;;3.27;;
50102;SDS011;35993;52.604;10.078;2023-02-28T08:28:57;6.40;;;3.27;;
50102;SDS011;35993;52.604;10.078;2023-02-28T08:31:23;5.90;;;3.03;;
50102;SDS011;35993;52.604;10.078;2023-02-28T08:33:48;6.90;;;3.20;;
50102;SDS011;35993;52.604;10.078;2023-02-28T08:36:17;4.43;;;2.60;;
50102;SDS011;35993;52.604;10.078;2023-02-28T08:38:43;6.40;;;2.80;;
50102;SDS011;35993;52.604;10.078;2023-02-28T08:41:10;7.87;;;3.53;;
50102;SDS011;35993;52.604;10.078;2023-02-28T08:43:38;8.30;;;3.47;;
50102;SDS011;35993;52.604;10.078;2023-02-28T08:46:04;8.23;;;3.20;;
50102;SDS011;35993;52.604;10.078;2023-02-28T08:48:32;6.93;;;2.90;;
50102;SDS011;35993;52.604;10.078;2023-02-28T08:51:00;4.30;;;2.50;;
50102;SDS011;35993;52.604;10.078;2023-02-28T08:53:27;3.80;;;2.30;;
50102;SDS011;35993;52.604;10.078;2023-02-28T08:56:03;5.57;;;2.50;;
50102;SDS011;35993;52.604;10.078;2023-02-28T08:58:33;5.23;;;2.77;;
50102;SDS011;35993;52.604;10.078;2023-02-28T09:00:59;4.77;;;2.40;;
50102;SDS011;35993;52.604;10.078;2023-02-28T09:03:25;3.93;;;2.20;;
50102;SDS011;35993;52.604;10.078;2023-02-28T09:05:56;3.87;;;2.40;;
50102;SDS011;35993;52.604;10.078;2023-02-28T09:08:24;3.65;;;2.40;;
50102;SDS011;35993;52.604;10.078;2023-02-28T09:10:50;6.20;;;2.57;;
50102;SDS011;35993;52.604;10.078;2023-02-28T09:13:16;3.70;;;2.23;;
50102;SDS011;35993;52.604;10.078;2023-02-28T09:15:42;3.63;;;1.92;;
50102;SDS011;35993;52.604;10.078;2023-02-28T09:18:08;4.68;;;2.30;;
50102;SDS011;35993;52.604;10.078;2023-02-28T09:20:34;5.27;;;2.57;;
50102;SDS011;35993;52.604;10.078;2023-02-28T09:22:59;4.40;;;2.27;;
50102;SDS011;35993;52.604;10.078;2023-02-28T09:25:25;3.17;;;1.77;;
50102;SDS011;35993;52.604;10.078;2023-02-28T09:27:50;4.70;;;2.30;;
50102;SDS011;35993;52.604;10.078;2023-02-28T09:30:16;9.80;;;2.60;;
50102;SDS011;35993;52.604;10.078;2023-02-28T09:32:41;5.90;;;2.87;;
50102;SDS011;35993;52.604;10.078;2023-02-28T09:35:07;4.40;;;2.40;;
50102;SDS011;35993;52.604;10.078;2023-02-28T09:37:38;6.20;;;2.33;;
50102;SDS011;35993;52.604;10.078;2023-02-28T09:40:04;4.40;;;2.50;;
50102;SDS011;35993;52.604;10.078;2023-02-28T09:42:36;4.88;;;2.58;;
50102;SDS011;35993;52.604;10.078;2023-02-28T09:45:02;4.73;;;2.63;;
50102;SDS011;35993;52.604;10.078;2023-02-28T09:47:40;4.32;;;2.10;;
50102;SDS011;35993;52.604;10.078;2023-02-28T09:50:29;4.80;;;2.57;;
50102;SDS011;35993;52.604;10.078;2023-02-28T09:52:58;7.50;;;2.65;;
50102;SDS011;35993;52.604;10.078;2023-02-28T09:55:33;5.57;;;1.98;;
50102;SDS011;35993;52.604;10.078;2023-02-28T09:58:11;4.40;;;1.92;;
50102;SDS011;35993;52.604;10.078;2023-02-28T10:00:49;5.00;;;2.10;;
50102;SDS011;35993;52.604;10.078;2023-02-28T10:03:25;5.10;;;1.97;;
50102;SDS011;35993;52.604;10.078;2023-02-28T10:06:07;5.28;;;2.22;;
50102;SDS011;35993;52.604;10.078;2023-02-28T10:08:45;3.92;;;2.10;;
50102;SDS011;35993;52.604;10.078;2023-02-28T10:11:17;3.97;;;2.03;;
50102;SDS011;35993;52.604;10.078;2023-02-28T10:14:00;3.80;;;1.80;;
50102;SDS011;35993;52.604;10.078;2023-02-28T10:16:33;5.75;;;2.10;;
50102;SDS011;35993;52.604;10.078;2023-02-28T10:19:14;3.95;;;1.60;;
50102;SDS011;35993;52.604;10.078;2023-02-28T10:21:47;4.13;;;1.70;;
50102;SDS011;35993;52.604;10.078;2023-02-28T10:24:23;2.92;;;1.50;;
50102;SDS011;35993;52.604;10.078;2023-02-28T10:27:04;3.13;;;1.40;;
50102;SDS011;35993;52.604;10.078;2023-02-28T10:29:40;2.05;;;1.20;;
50102;SDS011;35993;52.604;10.078;2023-02-28T10:32:08;4.97;;;1.50;;
50102;SDS011;35993;52.604;10.078;2023-02-28T10:34:39;3.97;;;1.50;;
50102;SDS011;35993;52.604;10.078;2023-02-28T10:37:04;4.17;;;1.50;;
50102;SDS011;35993;52.604;10.078;2023-02-28T10:39:41;1.88;;;1.05;;
50102;SDS011;35993;52.604;10.078;2023-02-28T10:48:01;1.60;;;0.98;;
50102;SDS011;35993;52.604;10.078;2023-02-28T10:55:51;1.52;;;0.80;;
50102;SDS011;35993;52.604;10.078;2023-02-28T10:58:23;2.13;;;1.00;;
50102;SDS011;35993;52.604;10.078;2023-02-28T11:00:51;1.92;;;1.13;;
50102;SDS011;35993;52.604;10.078;2023-02-28T11:03:36;3.00;;;1.10;;
50102;SDS011;35993;52.604;10.078;2023-02-28T11:06:06;2.67;;;1.00;;
50102;SDS011;35993;52.604;10.078;2023-02-28T11:08:54;1.25;;;0.90;;
50102;SDS011;35993;52.604;10.078;2023-02-28T11:11:22;4.03;;;0.75;;
50102;SDS011;35993;52.604;10.078;2023-02-28T11:13:52;0.95;;;0.70;;
50102;SDS011;35993;52.604;10.078;2023-02-28T11:16:21;1.65;;;0.80;;
50102;SDS011;35993;52.604;10.078;2023-02-28T11:18:56;3.42;;;0.93;;
50102;SDS011;35993;52.604;10.078;2023-02-28T11:21:29;1.60;;;0.77;;
50102;SDS011;35993;52.604;10.078;2023-02-28T11:26:54;1.55;;;0.82;;
50102;SDS011;35993;52.604;10.078;2023-02-28T11:32:32;2.35;;;1.10;;
50102;SDS011;35993;52.604;10.078;2023-02-28T11:34:34;1.55;;;0.88;;
50102;SDS011;35993;52.604;10.078;2023-02-28T11:37:02;2.53;;;0.90;;
50102;SDS011;35993;52.604;10.078;2023-02-28T11:39:31;1.60;;;1.00;;
50102;SDS011;35993;52.604;10.078;2023-02-28T11:42:07;1.55;;;0.88;;
50102;SDS011;35993;52.604;10.078;2023-02-28T11:53:10;2.70;;;1.02;;
50102;SDS011;35993;52.604;10.078;2023-02-28T12:01:28;1.95;;;1.10;;
50102;SDS011;35993;52.604;10.078;2023-02-28T12:09:57;2.72;;;1.05;;
50102;SDS011;35993;52.604;10.078;2023-02-28T12:20:59;1.27;;;1.00;;
50102;SDS011;35993;52.604;10.078;2023-02-28T12:28:56;3.88;;;1.20;;
50102;SDS011;35993;52.604;10.078;2023-02-28T12:31:30;3.47;;;1.05;;
50102;SDS011;35993;52.604;10.078;2023-02-28T12:34:01;1.75;;;0.95;;
50102;SDS011;35993;52.604;10.078;2023-02-28T12:36:31;1.35;;;0.75;;
50102;SDS011;35993;52.604;10.078;2023-02-28T12:39:14;1.85;;;1.00;;
50102;SDS011;35993;52.604;10.078;2023-02-28T12:41:58;1.80;;;0.90;;
50102;SDS011;35993;52.604;10.078;2023-02-28T12:44:32;3.05;;;0.93;;
50102;SDS011;35993;52.604;10.078;2023-02-28T12:47:03;2.00;;;0.95;;
50102;SDS011;35993;52.604;10.078;2023-02-28T12:49:37;2.60;;;1.10;;
50102;SDS011;35993;52.604;10.078;2023-02-28T12:52:06;1.67;;;1.00;;
50102;SDS011;35993;52.604;10.078;2023-02-28T12:57:45;2.08;;;1.00;;
50102;SDS011;35993;52.604;10.078;2023-02-28T13:00:17;3.17;;;0.90;;
50102;SDS011;35993;52.604;10.078;2023-02-28T13:03:06;1.42;;;0.85;;
50102;SDS011;35993;52.604;10.078;2023-02-28T13:14:01;1.55;;;1.05;;
50102;SDS011;35993;52.604;10.078;2023-02-28T13:16:42;1.98;;;0.98;;
50102;SDS011;35993;52.604;10.078;2023-02-28T13:19:17;1.73;;;0.90;;
50102;SDS011;35993;52.604;10.078;2023-02-28T13:21:45;2.05;;;0.95;;
50102;SDS011;35993;52.604;10.078;2023-02-28T13:24:11;2.00;;;1.05;;
50102;SDS011;35993;52.604;10.078;2023-02-28T13:29:28;3.00;;;1.10;;
50102;SDS011;35993;52.604;10.078;2023-02-28T13:34:40;2.75;;;1.20;;
50102;SDS011;35993;52.604;10.078;2023-02-28T13:37:32;2.72;;;1.02;;
50102;SDS011;35993;52.604;10.078;2023-02-28T13:42:36;3.78;;;1.20;;
50102;SDS011;35993;52.604;10.078;2023-02-28T14:03:31;3.05;;;1.10;;
50102;SDS011;35993;52.604;10.078;2023-02-28T14:08:58;2.92;;;1.10;;
50102;SDS011;35993;52.604;10.078;2023-02-28T14:11:36;2.15;;;1.15;;
50102;SDS011;35993;52.604;10.078;2023-02-28T14:14:04;2.60;;;0.95;;
50102;SDS011;35993;52.604;10.078;2023-02-28T14:16:45;2.88;;;1.15;;
50102;SDS011;35993;52.604;10.078;2023-02-28T14:19:17;2.38;;;1.20;;
50102;SDS011;35993;52.604;10.078;2023-02-28T14:27:04;2.35;;;1.10;;
50102;SDS011;35993;52.604;10.078;2023-02-28T14:32:35;3.40;;;1.33;;
50102;SDS011;35993;52.604;10.078;2023-02-28T14:37:53;2.13;;;1.33;;
50102;SDS011;35993;52.604;10.078;2023-02-28T14:40:29;4.00;;;1.52;;
50102;SDS011;35993;52.604;10.078;2023-02-28T14:42:58;2.22;;;1.20;;
50102;SDS011;35993;52.604;10.078;2023-02-28T14:45:27;1.95;;;1.17;;
50102;SDS011;35993;52.604;10.078;2023-02-28T14:47:55;2.83;;;1.40;;
50102;SDS011;35993;52.604;10.078;2023-02-28T14:50:23;2.85;;;1.30;;
50102;SDS011;35993;52.604;10.078;2023-02-28T14:52:52;2.47;;;1.30;;
50102;SDS011;35993;52.604;10.078;2023-02-28T14:55:26;3.80;;;1.50;;
50102;SDS011;35993;52.604;10.078;2023-02-28T14:57:55;2.05;;;1.40;;
50102;SDS011;35993;52.604;10.078;2023-02-28T15:00:31;3.88;;;1.80;;
50102;SDS011;35993;52.604;10.078;2023-02-28T15:03:19;2.90;;;1.60;;
50102;SDS011;35993;52.604;10.078;2023-02-28T15:05:56;3.45;;;1.50;;
50102;SDS011;35993;52.604;10.078;2023-02-28T15:08:24;2.88;;;1.35;;
50102;SDS011;35993;52.604;10.078;2023-02-28T15:19:02;5.28;;;2.50;;
50102;SDS011;35993;52.604;10.078;2023-02-28T15:21:36;2.80;;;1.60;;
50102;SDS011;35993;52.604;10.078;2023-02-28T15:24:17;3.30;;;1.50;;
50102;SDS011;35993;52.604;10.078;2023-02-28T15:27:39;2.50;;;1.38;;
50102;SDS011;35993;52.604;10.078;2023-02-28T15:29:47;2.78;;;1.40;;
50102;SDS011;35993;52.604;10.078;2023-02-28T15:32:29;2.78;;;1.38;;
50102;SDS011;35993;52.604;10.078;2023-02-28T15:35:00;2.72;;;1.42;;
50102;SDS011;35993;52.604;10.078;2023-02-28T15:40:46;2.63;;;1.60;;
50102;SDS011;35993;52.604;10.078;2023-02-28T15:45:58;4.10;;;1.65;;
50102;SDS011;35993;52.604;10.078;2023-02-28T15:48:30;2.53;;;1.58;;
50102;SDS011;35993;52.604;10.078;2023-02-28T15:51:06;5.28;;;1.80;;
50102;SDS011;35993;52.604;10.078;2023-02-28T15:56:28;2.90;;;1.85;;
50102;SDS011;35993;52.604;10.078;2023-02-28T15:59:42;3.30;;;1.73;;
50102;SDS011;35993;52.604;10.078;2023-02-28T16:02:02;4.53;;;1.90;;
50102;SDS011;35993;52.604;10.078;2023-02-28T16:04:28;5.50;;;1.90;;
50102;SDS011;35993;52.604;10.078;2023-02-28T16:09:28;4.30;;;2.00;;
50102;SDS011;35993;52.604;10.078;2023-02-28T16:11:56;3.55;;;1.92;;
50102;SDS011;35993;52.604;10.078;2023-02-28T16:14:27;4.10;;;1.85;;
50102;SDS011;35993;52.604;10.078;2023-02-28T16:16:56;3.00;;;1.65;;
50102;SDS011;35993;52.604;10.078;2023-02-28T16:19:36;3.95;;;1.80;;
50102;SDS011;35993;52.604;10.078;2023-02-28T16:22:04;3.13;;;1.80;;
50102;SDS011;35993;52.604;10.078;2023-02-28T16:24:29;3.25;;;1.42;;
50102;SDS011;35993;52.604;10.078;2023-02-28T16:26:55;3.80;;;1.83;;
50102;SDS011;35993;52.604;10.078;2023-02-28T16:29:23;2.95;;;1.52;;
50102;SDS011;35993;52.604;10.078;2023-02-28T16:31:51;3.40;;;1.92;;
50102;SDS011;35993;52.604;10.078;2023-02-28T16:34:18;3.13;;;1.50;;
50102;SDS011;35993;52.604;10.078;2023-02-28T16:36:46;3.88;;;1.80;;
50102;SDS011;35993;52.604;10.078;2023-02-28T16:39:12;2.90;;;1.88;;
50102;SDS011;35993;52.604;10.078;2023-02-28T16:41:38;4.45;;;1.75;;
50102;SDS011;35993;52.604;10.078;2023-02-28T16:44:21;2.85;;;1.70;;
50102;SDS011;35993;52.604;10.078;2023-02-28T16:46:55;3.25;;;1.85;;
50102;SDS011;35993;52.604;10.078;2023-02-28T16:49:24;3.13;;;1.70;;
50102;SDS011;35993;52.604;10.078;2023-02-28T16:51:50;4.90;;;1.90;;
50102;SDS011;35993;52.604;10.078;2023-02-28T16:54:15;4.82;;;2.60;;
50102;SDS011;35993;52.604;10.078;2023-02-28T16:56:43;5.15;;;2.83;;
50102;SDS011;35993;52.604;10.078;2023-02-28T16:59:10;4.18;;;2.35;;
50102;SDS011;35993;52.604;10.078;2023-02-28T17:01:37;3.58;;;2.08;;
50102;SDS011;35993;52.604;10.078;2023-02-28T17:04:03;4.95;;;2.28;;
50102;SDS011;35993;52.604;10.078;2023-02-28T17:06:29;3.75;;;2.30;;
50102;SDS011;35993;52.604;10.078;2023-02-28T17:08:56;3.78;;;2.17;;
50102;SDS011;35993;52.604;10.078;2023-02-28T17:11:23;4.32;;;2.17;;
50102;SDS011;35993;52.604;10.078;2023-02-28T17:13:49;4.65;;;2.20;;
50102;SDS011;35993;52.604;10.078;2023-02-28T17:16:28;3.72;;;1.90;;
50102;SDS011;35993;52.604;10.078;2023-02-28T17:18:56;5.00;;;2.35;;
50102;SDS011;35993;52.604;10.078;2023-02-28T17:21:26;5.27;;;2.40;;
50102;SDS011;35993;52.604;10.078;2023-02-28T17:23:52;4.97;;;2.08;;
50102;SDS011;35993;52.604;10.078;2023-02-28T17:26:21;5.53;;;2.60;;
50102;SDS011;35993;52.604;10.078;2023-02-28T17:28:49;5.60;;;2.47;;
50102;SDS011;35993;52.604;10.078;2023-02-28T17:31:16;6.07;;;2.30;;
50102;SDS011;35993;52.604;10.078;2023-02-28T17:33:42;4.45;;;2.30;;